ETWM

Meppe Airport

Germany
METAR ETWM 260220Z AUTO 36003KT 9999 // ////// M07/M09 Q1032 ///
Observed Flight Rules
Feb-26 @ 02:20 UTC (an hour ago)
Wind Visibility
360° at 3 knots 10,000+ meters
Temperatures Readings
Current -7°C / 19°F
Dewpoint -9°C / 16°F
Humidity 86%
Altimeter 30.47" Hg
Pressure 1032 hPa
Elevation 21
METAR ETWM 260220Z AUTO 36003KT 9999 // ////// M07/M09 Q1032 ///
Observed Flight Rules
Feb-26 @ 02:20 UTC
(an hour ago)
Wind Visibility
360° at 3 knots 10,000+ meters
Temperature Dewpoint
-7°C / 19°F -9°C / 16°F
Humidity Altimeter Pressure
86% 30.47" Hg 1032 hPa